Time,TemperatureF,DewpointF,PressureIn,WindDirection,WindDirectionDegrees,WindSpeedMPH,WindSpeedGustMPH,Humidity,HourlyPrecipIn,Conditions,Clouds,dailyrainin,SoftwareType,DateUTC
2013-04-19 00:00:00,33.0,33.0,-100.00,WNW,295,12.0,22.0,100,-99.99,,,-99.99,,2013-04-19 07:00:00,
2013-04-19 01:00:00,33.0,33.0,-100.00,WNW,292,12.0,27.0,100,-99.99,,,-99.99,,2013-04-19 08:00:00,
2013-04-19 02:00:00,33.0,33.0,-100.00,WNW,294,12.0,21.0,100,-99.99,,,-99.99,,2013-04-19 09:00:00,
2013-04-19 03:00:00,33.0,33.0,-100.00,WNW,289,12.0,22.0,100,-99.99,,,-99.99,,2013-04-19 10:00:00,
2013-04-19 04:00:00,33.0,33.0,-100.00,WNW,292,12.0,20.0,100,-99.99,,,-99.99,,2013-04-19 11:00:00,
2013-04-19 05:00:00,33.0,33.0,-100.00,WNW,286,12.0,21.0,100,-99.99,,,-99.99,,2013-04-19 12:00:00,
2013-04-19 06:00:00,34.0,34.0,-100.00,WNW,285,10.0,21.0,100,-99.99,,,-99.99,,2013-04-19 13:00:00,
2013-04-19 07:00:00,33.0,33.0,-100.00,WNW,289,12.0,20.0,100,-99.99,,,-99.99,,2013-04-19 14:00:00,
2013-04-19 08:00:00,32.0,32.0,-100.00,West,281,10.0,20.0,100,-99.99,,,-99.99,,2013-04-19 15:00:00,
2013-04-19 09:00:00,32.0,32.0,-100.00,West,276,9.0,17.0,100,-99.99,,,-99.99,,2013-04-19 16:00:00,
2013-04-19 10:00:00,32.0,32.0,-100.00,West,275,12.0,18.0,100,-99.99,,,-99.99,,2013-04-19 17:00:00,
2013-04-19 11:00:00,32.0,32.0,-100.00,West,281,12.0,20.0,100,-99.99,,,-99.99,,2013-04-19 18:00:00,
2013-04-19 12:00:00,33.0,33.0,-100.00,West,281,10.0,18.0,100,-99.99,,,-99.99,,2013-04-19 19:00:00,
2013-04-19 13:00:00,33.0,33.0,-100.00,WNW,286,12.0,23.0,100,-99.99,,,-99.99,,2013-04-19 20:00:00,
2013-04-19 14:00:00,33.0,33.0,-100.00,WNW,286,14.0,27.0,100,-99.99,,,-99.99,,2013-04-19 21:00:00,
2013-04-19 15:00:00,33.0,33.0,-100.00,WNW,288,15.0,29.0,100,-99.99,,,-99.99,,2013-04-19 22:00:00,
2013-04-19 16:00:00,33.0,33.0,-100.00,WNW,295,18.0,30.0,100,-99.99,,,-99.99,,2013-04-19 23:00:00,
2013-04-19 17:00:00,32.0,32.0,-100.00,WNW,298,20.0,29.0,100,-99.99,,,-99.99,,2013-04-20 00:00:00,
2013-04-19 18:00:00,32.0,32.0,-100.00,WNW,297,18.0,30.0,100,-99.99,,,-99.99,,2013-04-20 01:00:00,
2013-04-19 19:00:00,32.0,32.0,-100.00,WNW,296,18.0,35.0,100,-99.99,,,-99.99,,2013-04-20 02:00:00,
2013-04-19 20:00:00,31.0,31.0,-100.00,WNW,298,18.0,29.0,100,-99.99,,,-99.99,,2013-04-20 03:00:00,
2013-04-19 22:00:00,31.0,31.0,-100.00,WNW,300,18.0,32.0,100,-99.99,,,-99.99,,2013-04-20 05:00:00,
2013-04-19 23:00:00,31.0,31.0,-100.00,WNW,296,16.0,28.0,100,-99.99,,,-99.99,,2013-04-20 06:00:00,